createdAt,value
2019-03-19T00:00:00.361Z,100800.94
2019-03-19T00:02:33.340Z,100797.75
2019-03-19T00:05:06.224Z,100798.61
2019-03-19T00:07:38.791Z,100797.27
2019-03-19T00:10:11.796Z,100794.09
2019-03-19T00:12:44.445Z,100796.70
2019-03-19T00:15:16.355Z,100797.39
2019-03-19T00:17:49.157Z,100798.70
2019-03-19T00:20:21.834Z,100803.08
2019-03-19T00:22:56.119Z,100803.91
2019-03-19T00:25:30.308Z,100800.17
2019-03-19T00:28:03.315Z,100796.60
2019-03-19T00:30:35.940Z,100798.81
2019-03-19T00:33:08.976Z,100807.96
2019-03-19T00:35:41.925Z,100804.83
2019-03-19T00:38:14.521Z,100806.95
2019-03-19T00:40:48.718Z,100810.98
2019-03-19T00:43:21.314Z,100809.28
2019-03-19T00:45:53.880Z,100817.25
2019-03-19T00:48:26.631Z,100825.09
2019-03-19T00:50:59.580Z,100815.55
2019-03-19T00:53:32.200Z,100810.09
2019-03-19T00:56:05.406Z,100813.63
2019-03-19T00:58:38.949Z,100823.37
2019-03-19T01:01:11.699Z,100823.41
2019-03-19T01:03:45.013Z,100824.55
2019-03-19T01:06:17.771Z,100821.81
2019-03-19T01:08:50.347Z,100824.65
2019-03-19T01:11:24.382Z,100826.70
2019-03-19T01:13:57.967Z,100838.20
2019-03-19T01:16:30.774Z,100839.41
2019-03-19T01:19:04.325Z,100848.53
2019-03-19T01:21:37.116Z,100849.42
2019-03-19T01:24:09.629Z,100843.83
2019-03-19T01:26:42.427Z,100841.53
2019-03-19T01:29:15.254Z,100838.08
2019-03-19T01:31:47.806Z,100839.39
2019-03-19T01:34:20.785Z,100842.64
2019-03-19T01:36:53.333Z,100854.06
2019-03-19T01:39:25.927Z,100851.39
2019-03-19T01:41:59.183Z,100846.55
2019-03-19T01:44:32.431Z,100842.33
2019-03-19T01:47:05.875Z,100844.43
2019-03-19T01:49:38.764Z,100841.33
2019-03-19T01:52:11.974Z,100844.64
2019-03-19T01:54:44.370Z,100845.61
2019-03-19T01:57:18.285Z,100848.84
2019-03-19T01:59:52.015Z,100854.63
2019-03-19T02:02:24.564Z,100860.55
2019-03-19T02:04:57.967Z,100865.75
2019-03-19T02:07:30.599Z,100872.58
2019-03-19T02:10:03.294Z,100869.40
2019-03-19T02:12:36.580Z,100870.78
2019-03-19T02:15:12.930Z,100877.73
2019-03-19T02:17:45.619Z,100870.59
2019-03-19T02:20:18.445Z,100873.47
2019-03-19T02:22:50.901Z,100878.12
2019-03-19T02:25:23.725Z,100875.53
2019-03-19T02:27:56.774Z,100873.52
2019-03-19T02:30:29.402Z,100874.55
2019-03-19T02:33:02.421Z,100875.02
2019-03-19T02:35:36.375Z,100871.52
2019-03-19T02:38:08.994Z,100866.45
2019-03-19T02:40:41.583Z,100873.95
2019-03-19T02:43:14.532Z,100876.70
2019-03-19T02:45:47.116Z,100881.55
2019-03-19T02:48:19.695Z,100885.08
2019-03-19T02:50:52.571Z,100884.95
2019-03-19T02:53:25.167Z,100886.21
2019-03-19T02:55:57.607Z,100889.12
2019-03-19T02:58:30.384Z,100899.23
2019-03-19T03:01:03.319Z,100910.12
2019-03-19T03:03:36.001Z,100921.91
2019-03-19T03:06:08.994Z,100922.52
2019-03-19T03:08:41.552Z,100928.55
2019-03-19T03:11:14.033Z,100924.77
2019-03-19T03:13:46.875Z,100929.75
2019-03-19T03:16:19.690Z,100937.36
2019-03-19T03:18:52.434Z,100945.18
2019-03-19T03:21:25.154Z,100947.05
2019-03-19T03:23:57.773Z,100945.42
2019-03-19T03:26:30.364Z,100940.28
2019-03-19T03:29:03.485Z,100942.81
2019-03-19T03:31:36.473Z,100939.08
2019-03-19T03:34:09.023Z,100937.74
2019-03-19T03:36:41.807Z,100934.70
2019-03-19T03:39:14.451Z,100937.30
2019-03-19T03:41:46.997Z,100934.40
2019-03-19T03:44:19.803Z,100937.97
2019-03-19T03:46:52.364Z,100938.91
2019-03-19T03:49:26.612Z,100943.09
2019-03-19T03:52:00.217Z,100948.16
2019-03-19T03:54:32.726Z,100955.92
2019-03-19T03:57:06.849Z,100960.28
2019-03-19T03:59:40.594Z,100966.12
2019-03-19T04:02:13.145Z,100963.70
2019-03-19T04:04:47.515Z,100964.19
2019-03-19T04:07:21.595Z,100962.63
2019-03-19T04:09:55.015Z,100960.56
2019-03-19T04:12:27.492Z,100960.32
2019-03-19T04:15:00.405Z,100967.55
2019-03-19T04:17:35.208Z,100968.58
2019-03-19T04:20:08.281Z,100967.38
2019-03-19T04:22:42.413Z,100961.89
2019-03-19T04:25:15.079Z,100957.57
2019-03-19T04:27:47.675Z,100960.25
2019-03-19T04:30:22.152Z,100959.69
2019-03-19T04:32:54.780Z,100969.31
2019-03-19T04:35:27.250Z,100980.69
2019-03-19T04:38:00.038Z,100985.94
2019-03-19T04:40:32.607Z,100985.86
2019-03-19T04:43:05.078Z,100986.30
2019-03-19T04:45:41.395Z,100989.66
2019-03-19T04:48:14.733Z,100990.45
2019-03-19T04:50:47.239Z,100992.23
2019-03-19T04:53:24.141Z,100993.89
2019-03-19T04:55:58.121Z,100996.68
2019-03-19T04:58:30.658Z,100988.08
2019-03-19T05:01:03.545Z,100995.55
2019-03-19T05:03:36.053Z,101003.66
2019-03-19T05:06:08.484Z,101005.81
2019-03-19T05:08:42.421Z,101010.63
2019-03-19T05:11:16.164Z,101009.73
2019-03-19T05:13:51.409Z,101010.56
2019-03-19T05:16:25.219Z,101011.27
2019-03-19T05:18:57.784Z,101009.34
2019-03-19T05:21:32.258Z,101006.50
2019-03-19T05:24:04.977Z,101006.36
2019-03-19T05:26:39.140Z,101009.56
2019-03-19T05:29:11.699Z,101013.23
2019-03-19T05:31:44.569Z,101019.58
2019-03-19T05:34:17.104Z,101017.05
2019-03-19T05:36:49.756Z,101016.64
2019-03-19T05:39:23.713Z,101018.38
2019-03-19T05:41:56.342Z,101020.50
2019-03-19T05:44:28.850Z,101031.33
2019-03-19T05:47:01.951Z,101027.44
2019-03-19T05:49:35.897Z,101028.02
2019-03-19T05:52:09.220Z,101022.45
2019-03-19T05:54:43.486Z,101025.22
2019-03-19T05:57:18.598Z,101036.13
2019-03-19T05:59:51.919Z,101036.13
2019-03-19T06:02:25.060Z,101044.98
2019-03-19T06:04:58.685Z,101053.20
2019-03-19T06:07:31.323Z,101056.09
2019-03-19T06:10:05.150Z,101060.02
2019-03-19T06:12:37.790Z,101057.11
2019-03-19T06:15:10.476Z,101054.89
2019-03-19T06:17:45.463Z,101059.66
2019-03-19T06:20:18.138Z,101068.45
2019-03-19T06:22:50.932Z,101069.92
2019-03-19T06:25:24.772Z,101065.67
2019-03-19T06:28:00.741Z,101066.03
2019-03-19T06:30:33.833Z,101071.45
2019-03-19T06:33:06.410Z,101074.78
2019-03-19T06:35:39.018Z,101079.16
2019-03-19T06:38:11.742Z,101084.14
2019-03-19T06:40:45.221Z,101082.91
2019-03-19T06:43:17.914Z,101091.28
2019-03-19T06:45:53.977Z,101090.16
2019-03-19T06:48:26.893Z,101087.64
2019-03-19T06:51:04.078Z,101092.84
2019-03-19T06:53:37.402Z,101095.98
2019-03-19T06:56:10.432Z,101099.75
2019-03-19T06:58:42.996Z,101108.98
2019-03-19T07:01:17.504Z,101115.88
2019-03-19T07:03:52.183Z,101106.16
2019-03-19T07:06:25.015Z,101111.38
2019-03-19T07:08:58.988Z,101115.25
2019-03-19T07:11:33.383Z,101117.63
2019-03-19T07:14:06.679Z,101125.05
2019-03-19T07:16:40.813Z,101124.45
2019-03-19T07:19:13.434Z,101124.33
2019-03-19T07:21:46.905Z,101133.88
2019-03-19T07:24:20.274Z,101138.97
2019-03-19T07:26:52.814Z,101135.77
2019-03-19T07:29:29.971Z,101131.98
2019-03-19T07:32:02.500Z,101147.33
2019-03-19T07:34:38.056Z,101149.01
2019-03-19T07:37:10.975Z,101146.66
2019-03-19T07:39:43.407Z,101142.87
2019-03-19T07:42:17.134Z,101142.43
2019-03-19T07:44:50.089Z,101143.42
2019-03-19T07:47:24.446Z,101142.95
2019-03-19T07:49:57.786Z,101140.39
2019-03-19T07:52:30.290Z,101141.40
2019-03-19T07:55:03.023Z,101143.00
2019-03-19T07:57:37.591Z,101137.12
2019-03-19T08:00:14.271Z,101134.16
2019-03-19T08:02:48.714Z,101141.38
2019-03-19T08:05:32.219Z,101143.00
2019-03-19T08:08:06.571Z,101137.78
2019-03-19T08:10:41.772Z,101138.30
2019-03-19T08:13:14.887Z,101137.23
2019-03-19T08:15:48.203Z,101133.97
2019-03-19T08:18:29.650Z,101136.91
2019-03-19T08:21:03.960Z,101139.72
2019-03-19T08:23:39.517Z,101139.95
2019-03-19T08:26:13.142Z,101145.47
2019-03-19T08:28:55.075Z,101147.27
2019-03-19T08:31:33.363Z,101156.14
2019-03-19T08:34:07.453Z,101158.38
2019-03-19T08:36:40.694Z,101155.69
2019-03-19T08:39:15.656Z,101150.15
2019-03-19T08:41:48.294Z,101147.42
2019-03-19T08:44:27.688Z,101158.78
2019-03-19T08:47:02.265Z,101157.20
2019-03-19T08:49:39.455Z,101153.00
2019-03-19T08:52:12.766Z,101159.24
2019-03-19T08:54:45.373Z,101164.86
2019-03-19T08:57:18.522Z,101163.29
2019-03-19T08:59:59.531Z,101166.30
2019-03-19T09:02:33.095Z,101172.25
2019-03-19T09:05:10.680Z,101170.47
2019-03-19T09:07:43.930Z,101174.34
2019-03-19T09:10:23.560Z,101173.17
2019-03-19T09:12:57.105Z,101173.70
2019-03-19T09:15:33.042Z,101177.62
2019-03-19T09:18:06.189Z,101177.35
2019-03-19T09:20:39.180Z,101176.11
2019-03-19T09:23:12.116Z,101173.17
2019-03-19T09:25:46.415Z,101174.42
2019-03-19T09:28:23.935Z,101175.52
2019-03-19T09:30:58.639Z,101180.06
2019-03-19T09:33:32.548Z,101180.42
2019-03-19T09:36:29.709Z,101184.43
2019-03-19T09:39:08.431Z,101185.14
2019-03-19T09:41:41.773Z,101181.76
2019-03-19T09:44:15.190Z,101180.48
2019-03-19T09:46:47.861Z,101182.23
2019-03-19T09:49:24.041Z,101185.75
2019-03-19T09:51:56.856Z,101186.59
2019-03-19T09:54:32.288Z,101187.26
2019-03-19T09:57:04.866Z,101192.51
2019-03-19T09:59:37.611Z,101185.70
2019-03-19T10:02:12.336Z,101182.18
2019-03-19T10:04:46.451Z,101185.55
2019-03-19T10:07:19.046Z,101184.65
2019-03-19T10:09:52.882Z,101187.94
2019-03-19T10:12:26.744Z,101184.62
2019-03-19T10:15:00.386Z,101183.02
2019-03-19T10:17:36.729Z,101188.00
2019-03-19T10:20:14.191Z,101194.94
2019-03-19T10:22:48.691Z,101196.65
2019-03-19T10:25:23.618Z,101200.52
2019-03-19T10:27:58.640Z,101195.16
2019-03-19T10:30:32.228Z,101193.30
2019-03-19T10:33:07.315Z,101192.82
2019-03-19T10:35:40.163Z,101191.78
2019-03-19T10:38:12.724Z,101193.88
2019-03-19T10:40:45.261Z,101196.30
2019-03-19T10:43:18.218Z,101193.28
2019-03-19T10:45:50.844Z,101198.09
2019-03-19T10:48:23.500Z,101197.56
2019-03-19T10:50:56.599Z,101194.72
2019-03-19T10:53:30.435Z,101197.30
2019-03-19T10:56:03.939Z,101192.56
2019-03-19T10:58:37.606Z,101198.22
2019-03-19T11:01:11.453Z,101199.63
2019-03-19T11:03:44.771Z,101199.99
2019-03-19T11:06:17.467Z,101198.16
2019-03-19T11:08:49.836Z,101195.36
2019-03-19T11:11:22.447Z,101199.92
2019-03-19T11:13:55.391Z,101206.91
2019-03-19T11:16:33.294Z,101203.90
2019-03-19T11:19:07.383Z,101207.35
2019-03-19T11:21:40.035Z,101208.71
2019-03-19T11:24:14.151Z,101210.09
2019-03-19T11:26:48.247Z,101210.84
2019-03-19T11:29:20.650Z,101211.52
2019-03-19T11:31:53.399Z,101213.36
2019-03-19T11:34:26.823Z,101207.78
2019-03-19T11:37:09.675Z,101206.85
2019-03-19T11:39:44.270Z,101207.95
2019-03-19T11:42:20.110Z,101202.38
2019-03-19T11:44:54.831Z,101202.06
2019-03-19T11:47:30.576Z,101205.33
2019-03-19T11:50:03.728Z,101197.02
2019-03-19T11:52:36.407Z,101190.55
2019-03-19T11:55:11.779Z,101189.69
2019-03-19T11:57:45.681Z,101187.50
2019-03-19T12:00:43.989Z,101187.28
2019-03-19T12:03:18.747Z,101188.81
2019-03-19T12:05:52.323Z,101190.84
2019-03-19T12:08:26.115Z,101184.75
2019-03-19T12:11:00.330Z,101180.28
2019-03-19T12:13:37.891Z,101178.12
2019-03-19T12:16:10.986Z,101183.08
2019-03-19T12:18:43.796Z,101182.73
2019-03-19T12:21:16.283Z,101177.50
2019-03-19T12:23:49.938Z,101179.08
2019-03-19T12:26:23.147Z,101178.45
2019-03-19T12:28:55.726Z,101180.18
2019-03-19T12:31:28.228Z,101181.45
2019-03-19T12:34:02.050Z,101183.50
2019-03-19T12:36:36.433Z,101177.00
2019-03-19T12:39:10.014Z,101182.71
2019-03-19T12:41:48.509Z,101182.16
2019-03-19T12:44:33.674Z,101184.58
2019-03-19T12:47:07.354Z,101179.45
2019-03-19T12:49:44.775Z,101174.71
2019-03-19T12:52:19.869Z,101173.19
2019-03-19T12:54:52.435Z,101171.34
2019-03-19T12:57:25.608Z,101168.96
2019-03-19T12:59:59.188Z,101176.80
2019-03-19T13:02:34.859Z,101170.34
2019-03-19T13:05:14.506Z,101169.11
2019-03-19T13:07:49.924Z,101167.33
2019-03-19T13:10:23.966Z,101167.35
2019-03-19T13:12:57.221Z,101179.13
2019-03-19T13:15:34.844Z,101178.41
2019-03-19T13:18:08.891Z,101182.23
2019-03-19T13:20:42.411Z,101186.13
2019-03-19T13:23:18.143Z,101186.28
2019-03-19T13:25:52.819Z,101192.50
2019-03-19T13:28:25.349Z,101191.12
2019-03-19T13:30:58.224Z,101192.78
2019-03-19T13:33:36.482Z,101193.94
2019-03-19T13:36:10.740Z,101190.20
2019-03-19T13:38:53.111Z,101188.34
2019-03-19T13:41:28.323Z,101186.94
2019-03-19T13:44:01.138Z,101184.17
2019-03-19T13:46:34.169Z,101182.84
2019-03-19T13:49:07.230Z,101187.13
2019-03-19T13:51:39.860Z,101181.30
2019-03-19T13:54:12.670Z,101187.19
2019-03-19T13:56:45.546Z,101182.98
2019-03-19T13:59:20.656Z,101180.48
2019-03-19T14:01:55.216Z,101187.07
2019-03-19T14:04:28.755Z,101181.20
2019-03-19T14:07:02.543Z,101181.83
2019-03-19T14:09:35.120Z,101186.16
2019-03-19T14:12:07.676Z,101181.94
2019-03-19T14:14:42.918Z,101180.12
2019-03-19T14:17:18.579Z,101181.36
2019-03-19T14:19:51.394Z,101183.05
2019-03-19T14:22:24.950Z,101180.02
2019-03-19T14:24:58.801Z,101182.05
2019-03-19T14:27:33.629Z,101180.34
2019-03-19T14:30:13.025Z,101181.01
2019-03-19T14:32:48.404Z,101180.95
2019-03-19T14:35:22.770Z,101186.37
2019-03-19T14:37:57.589Z,101190.94
2019-03-19T14:40:30.506Z,101189.48
2019-03-19T14:45:38.723Z,101177.86
2019-03-19T14:48:11.439Z,101179.94
2019-03-19T14:50:46.084Z,101182.14
2019-03-19T14:53:20.276Z,101181.76
2019-03-19T14:55:54.662Z,101182.92
2019-03-19T14:58:32.854Z,101186.73
2019-03-19T15:01:05.605Z,101192.84
2019-03-19T15:03:38.144Z,101189.28
2019-03-19T15:06:13.039Z,101193.09
2019-03-19T15:08:49.144Z,101191.12
2019-03-19T15:11:22.837Z,101188.90
2019-03-19T15:14:01.664Z,101188.30
2019-03-19T15:16:35.978Z,101194.73
2019-03-19T15:19:08.473Z,101190.78
2019-03-19T15:21:43.956Z,101187.66
2019-03-19T15:24:16.520Z,101189.73
2019-03-19T15:26:50.926Z,101182.89
2019-03-19T15:29:25.610Z,101187.84
2019-03-19T15:31:59.430Z,101188.85
2019-03-19T15:34:35.410Z,101186.76
2019-03-19T15:37:09.271Z,101186.25
2019-03-19T15:39:43.882Z,101181.97
2019-03-19T15:42:17.988Z,101186.51
2019-03-19T15:44:53.995Z,101188.02
2019-03-19T15:47:27.279Z,101191.88
2019-03-19T15:50:00.780Z,101197.92
2019-03-19T15:52:35.923Z,101196.70
2019-03-19T15:55:13.535Z,101190.81
2019-03-19T15:57:46.729Z,101191.05
2019-03-19T16:00:29.975Z,101188.09
2019-03-19T16:03:07.753Z,101191.50
2019-03-19T16:05:43.927Z,101185.75
2019-03-19T16:08:16.806Z,101190.77
2019-03-19T16:10:53.265Z,101198.13
2019-03-19T16:13:30.574Z,101201.10
2019-03-19T16:16:05.270Z,101204.14
2019-03-19T16:18:39.043Z,101203.16
2019-03-19T16:21:16.235Z,101207.23
2019-03-19T16:23:50.863Z,101213.01
2019-03-19T16:26:24.696Z,101212.91
2019-03-19T16:28:59.824Z,101208.15
2019-03-19T16:31:35.252Z,101210.70
2019-03-19T16:34:07.826Z,101208.79
2019-03-19T16:36:41.080Z,101207.17
2019-03-19T16:39:15.387Z,101213.34
2019-03-19T16:41:49.873Z,101213.19
2019-03-19T16:44:24.084Z,101213.03
2019-03-19T16:47:00.086Z,101219.42
2019-03-19T16:49:34.686Z,101221.27
2019-03-19T16:52:08.568Z,101228.22
2019-03-19T16:54:41.287Z,101228.93
2019-03-19T16:57:19.290Z,101232.78
2019-03-19T16:59:55.067Z,101232.05
2019-03-19T17:02:36.700Z,101233.34
2019-03-19T17:05:17.461Z,101235.58
2019-03-19T17:07:51.534Z,101237.81
2019-03-19T17:10:28.870Z,101243.11
2019-03-19T17:13:01.424Z,101238.81
2019-03-19T17:15:39.208Z,101243.84
2019-03-19T17:18:15.095Z,101246.66
2019-03-19T17:20:47.943Z,101245.56
2019-03-19T17:23:25.177Z,101247.07
2019-03-19T17:26:04.815Z,101250.48
2019-03-19T17:28:42.099Z,101255.09
2019-03-19T17:31:19.099Z,101258.73
2019-03-19T17:33:56.734Z,101264.00
2019-03-19T17:36:37.385Z,101271.83
2019-03-19T17:39:13.809Z,101277.45
2019-03-19T17:41:49.250Z,101274.70
2019-03-19T17:44:24.452Z,101275.81
2019-03-19T17:47:00.054Z,101283.81
2019-03-19T17:49:36.419Z,101280.33
2019-03-19T17:52:09.695Z,101280.99
2019-03-19T17:54:45.193Z,101284.91
2019-03-19T17:57:18.479Z,101286.23
2019-03-19T17:59:52.777Z,101283.31
2019-03-19T18:02:26.580Z,101290.04
2019-03-19T18:05:06.637Z,101293.70
2019-03-19T18:07:39.907Z,101300.65
2019-03-19T18:10:12.765Z,101298.61
2019-03-19T18:12:46.311Z,101306.27
2019-03-19T18:15:22.381Z,101307.54
2019-03-19T18:17:55.892Z,101309.59
2019-03-19T18:20:30.442Z,101306.71
2019-03-19T18:23:07.783Z,101311.45
2019-03-19T18:25:46.005Z,101320.37
2019-03-19T18:28:19.913Z,101318.80
2019-03-19T18:30:54.415Z,101319.61
2019-03-19T18:33:27.267Z,101319.95
2019-03-19T18:36:02.239Z,101322.48
2019-03-19T18:38:35.537Z,101325.30
2019-03-19T18:41:09.893Z,101327.23
2019-03-19T18:43:44.243Z,101328.77
2019-03-19T18:46:22.116Z,101327.86
2019-03-19T18:48:56.456Z,101327.05
2019-03-19T18:51:30.940Z,101324.24
2019-03-19T18:54:05.320Z,101329.88
2019-03-19T18:56:39.055Z,101337.64
2019-03-19T18:59:17.170Z,101343.92
2019-03-19T19:01:51.076Z,101341.91
2019-03-19T19:04:24.485Z,101340.21
2019-03-19T19:06:58.084Z,101342.73
2019-03-19T19:09:31.514Z,101348.78
2019-03-19T19:12:04.685Z,101351.86
2019-03-19T19:14:38.720Z,101348.71
2019-03-19T19:17:13.213Z,101357.10
2019-03-19T19:19:46.168Z,101362.11
2019-03-19T19:22:18.792Z,101369.23
2019-03-19T19:24:51.352Z,101372.94
2019-03-19T19:27:24.691Z,101378.28
2019-03-19T19:30:00.347Z,101382.17
2019-03-19T19:32:36.530Z,101385.03
2019-03-19T19:35:12.186Z,101387.17
2019-03-19T19:37:47.050Z,101388.19
2019-03-19T19:40:20.689Z,101388.30
2019-03-19T19:42:55.529Z,101387.53
2019-03-19T19:45:28.141Z,101395.53
2019-03-19T19:48:01.483Z,101401.36
2019-03-19T19:50:35.682Z,101401.98
2019-03-19T19:53:08.920Z,101404.56
2019-03-19T19:55:42.936Z,101403.84
2019-03-19T19:58:18.846Z,101408.97
2019-03-19T20:00:53.147Z,101412.04
2019-03-19T20:03:26.614Z,101411.56
2019-03-19T20:06:06.625Z,101414.41
2019-03-19T20:08:42.336Z,101414.08
2019-03-19T20:11:15.180Z,101418.84
2019-03-19T20:13:49.508Z,101423.00
2019-03-19T20:16:25.841Z,101423.97
2019-03-19T20:19:04.029Z,101425.53
2019-03-19T20:21:38.219Z,101425.41
2019-03-19T20:24:13.876Z,101424.61
2019-03-19T20:26:49.655Z,101427.80
2019-03-19T20:29:26.773Z,101430.02
2019-03-19T20:32:01.755Z,101435.73
2019-03-19T20:34:39.315Z,101439.90
2019-03-19T20:37:11.581Z,101446.55
2019-03-19T20:39:44.136Z,101450.05
2019-03-19T20:42:17.604Z,101451.64
2019-03-19T20:44:53.022Z,101454.72
2019-03-19T20:47:25.638Z,101451.40
2019-03-19T20:50:02.590Z,101457.91
2019-03-19T20:52:35.504Z,101458.70
2019-03-19T20:55:09.073Z,101448.72
2019-03-19T20:57:43.670Z,101453.60
2019-03-19T21:00:19.793Z,101452.20
2019-03-19T21:02:52.923Z,101453.27
2019-03-19T21:05:26.578Z,101454.09
2019-03-19T21:08:00.805Z,101454.50
2019-03-19T21:10:35.389Z,101462.93
2019-03-19T21:13:12.011Z,101468.77
2019-03-19T21:15:45.610Z,101474.27
2019-03-19T21:18:19.109Z,101477.44
2019-03-19T21:20:53.963Z,101481.72
2019-03-19T21:23:28.877Z,101486.62
2019-03-19T21:26:03.324Z,101490.67
2019-03-19T21:28:40.257Z,101495.19
2019-03-19T21:31:17.858Z,101501.47
2019-03-19T21:33:51.717Z,101500.26
2019-03-19T21:36:27.532Z,101503.30
2019-03-19T21:39:00.781Z,101502.04
2019-03-19T21:41:36.024Z,101502.94
2019-03-19T21:44:10.674Z,101505.92
2019-03-19T21:46:45.603Z,101500.36
2019-03-19T21:49:19.852Z,101502.04
2019-03-19T21:51:52.869Z,101499.65
2019-03-19T21:54:26.899Z,101497.83
2019-03-19T21:57:00.920Z,101498.94
2019-03-19T21:59:39.236Z,101493.17
2019-03-19T22:02:13.569Z,101490.00
2019-03-19T22:04:47.512Z,101491.31
2019-03-19T22:07:20.730Z,101493.24
2019-03-19T22:09:56.772Z,101493.45
2019-03-19T22:12:29.984Z,101488.13
2019-03-19T22:15:12.922Z,101491.83
2019-03-19T22:17:46.590Z,101496.20
2019-03-19T22:20:20.135Z,101492.72
2019-03-19T22:22:53.761Z,101488.47
2019-03-19T22:25:26.419Z,101496.16
2019-03-19T22:27:59.038Z,101496.89
2019-03-19T22:30:32.134Z,101503.59
2019-03-19T22:33:06.207Z,101504.19
2019-03-19T22:35:39.706Z,101500.72
2019-03-19T22:38:13.796Z,101502.25
2019-03-19T22:40:46.322Z,101506.02
2019-03-19T22:43:19.628Z,101510.73
2019-03-19T22:45:53.271Z,101512.65
2019-03-19T22:48:27.014Z,101512.98
2019-03-19T22:51:01.045Z,101507.38
2019-03-19T22:53:34.032Z,101503.20
2019-03-19T22:56:06.687Z,101501.79
2019-03-19T22:58:39.526Z,101506.97
2019-03-19T23:01:14.595Z,101506.40
2019-03-19T23:03:47.222Z,101513.12
2019-03-19T23:06:20.060Z,101516.58
2019-03-19T23:08:53.932Z,101516.26
2019-03-19T23:11:28.184Z,101516.86
2019-03-19T23:14:02.234Z,101519.36
2019-03-19T23:16:36.819Z,101526.88
2019-03-19T23:19:09.537Z,101525.39
2019-03-19T23:21:42.034Z,101530.37
2019-03-19T23:24:14.972Z,101529.13
2019-03-19T23:26:47.640Z,101527.52
2019-03-19T23:29:20.341Z,101528.66
2019-03-19T23:31:53.311Z,101517.73
2019-03-19T23:34:25.878Z,101511.61
2019-03-19T23:36:58.702Z,101502.62
2019-03-19T23:39:31.635Z,101502.61
2019-03-19T23:42:04.275Z,101500.25
2019-03-19T23:44:37.445Z,101500.96
2019-03-19T23:47:11.419Z,101500.48
2019-03-19T23:49:44.053Z,101506.73
2019-03-19T23:52:16.622Z,101513.41
2019-03-19T23:54:51.539Z,101519.69
2019-03-19T23:57:23.982Z,101521.36
2019-03-19T23:59:57.094Z,101523.19
